createdAt,value
2022-08-22T00:00:34.269Z,22.90
2022-08-22T00:02:55.766Z,21.58
2022-08-22T00:03:18.638Z,19.27
2022-08-22T00:06:18.860Z,19.67
2022-08-22T00:08:55.785Z,16.52
2022-08-22T00:11:41.166Z,24.15
2022-08-22T00:14:40.376Z,19.77
2022-08-22T00:17:36.606Z,18.92
2022-08-22T00:20:04.383Z,16.38
2022-08-22T00:22:37.301Z,16.33
2022-08-22T00:25:07.722Z,14.57
2022-08-22T00:28:19.439Z,14.45
2022-08-22T00:30:56.739Z,14.75
2022-08-22T00:33:36.999Z,16.10
2022-08-22T00:36:24.645Z,17.02
2022-08-22T00:39:10.535Z,11.55
2022-08-22T00:42:15.886Z,10.65
2022-08-22T00:44:56.735Z,17.00
2022-08-22T00:47:39.049Z,9.88
2022-08-22T00:50:44.384Z,13.80
2022-08-22T00:53:48.898Z,14.95
2022-08-22T00:56:37.547Z,11.88
2022-08-22T00:59:26.099Z,10.52
2022-08-22T01:01:56.354Z,16.67
2022-08-22T01:04:41.474Z,11.00
2022-08-22T01:07:20.564Z,11.95
2022-08-22T01:10:14.822Z,13.07
2022-08-22T01:12:57.687Z,9.60
2022-08-22T01:15:29.487Z,11.00
2022-08-22T01:18:27.538Z,14.13
2022-08-22T01:21:24.511Z,10.93
2022-08-22T01:24:10.373Z,18.17
2022-08-22T01:27:05.654Z,9.02
2022-08-22T01:30:01.182Z,14.07
2022-08-22T01:32:36.084Z,15.93
2022-08-22T01:35:28.297Z,13.15
2022-08-22T01:38:13.848Z,13.77
2022-08-22T01:41:03.639Z,12.23
2022-08-22T01:43:59.716Z,13.07
2022-08-22T01:46:45.323Z,10.93
2022-08-22T01:49:33.910Z,19.75
2022-08-22T01:52:29.794Z,10.85
2022-08-22T01:55:07.995Z,15.00
2022-08-22T01:57:54.627Z,12.65
2022-08-22T02:00:35.058Z,17.38
2022-08-22T02:03:03.489Z,13.32
2022-08-22T02:05:38.007Z,14.85
2022-08-22T02:08:23.151Z,12.65
2022-08-22T02:10:53.273Z,14.88
2022-08-22T02:13:44.080Z,12.95
2022-08-22T02:16:24.673Z,13.85
2022-08-22T02:19:19.313Z,10.77
2022-08-22T02:21:53.653Z,11.88
2022-08-22T02:24:24.696Z,13.30
2022-08-22T02:27:04.444Z,13.13
2022-08-22T02:29:35.867Z,14.48
2022-08-22T02:34:48.766Z,18.98
2022-08-22T02:37:39.696Z,10.23
2022-08-22T02:40:34.946Z,11.93
2022-08-22T02:43:25.657Z,13.80
2022-08-22T02:46:13.716Z,13.57
2022-08-22T02:48:59.167Z,13.70
2022-08-22T02:51:50.423Z,11.43
2022-08-22T02:54:26.381Z,13.25
2022-08-22T02:57:09.582Z,14.32
2022-08-22T03:00:31.527Z,20.05
2022-08-22T03:03:15.030Z,11.57
2022-08-22T03:05:48.610Z,15.00
2022-08-22T03:08:24.917Z,14.23
2022-08-22T03:11:13.939Z,19.80
2022-08-22T03:14:18.378Z,11.70
2022-08-22T03:17:08.854Z,17.42
2022-08-22T03:19:51.110Z,13.88
2022-08-22T03:22:25.634Z,20.98
2022-08-22T03:25:02.283Z,11.75
2022-08-22T03:27:41.487Z,15.25
2022-08-22T03:30:18.553Z,12.30
2022-08-22T03:33:14.631Z,21.40
2022-08-22T03:35:42.352Z,17.02
2022-08-22T03:38:30.149Z,14.77
2022-08-22T03:41:27.711Z,15.23
2022-08-22T03:44:13.360Z,16.90
2022-08-22T03:46:55.891Z,14.75
2022-08-22T03:49:49.521Z,15.13
2022-08-22T03:53:05.093Z,20.40
2022-08-22T03:55:47.919Z,16.05
2022-08-22T03:58:46.294Z,18.70
2022-08-22T04:01:29.690Z,15.63
2022-08-22T04:04:15.358Z,13.40
2022-08-22T04:07:32.108Z,16.92
2022-08-22T04:10:48.644Z,18.95
2022-08-22T04:13:41.085Z,19.67
2022-08-22T04:16:54.399Z,17.70
2022-08-22T04:19:40.492Z,23.35
2022-08-22T04:22:18.510Z,17.25
2022-08-22T04:24:51.966Z,17.60
2022-08-22T04:27:29.741Z,19.27
2022-08-22T04:30:25.642Z,23.08
2022-08-22T04:33:02.352Z,24.13
2022-08-22T04:35:54.042Z,19.65
2022-08-22T04:38:47.990Z,22.52
2022-08-22T04:41:24.676Z,19.55
2022-08-22T04:44:02.026Z,17.92
2022-08-22T04:46:39.607Z,15.90
2022-08-22T04:49:32.922Z,15.57
2022-08-22T04:52:23.087Z,26.67
2022-08-22T04:55:02.692Z,17.45
2022-08-22T04:57:57.367Z,19.63
2022-08-22T05:00:49.622Z,14.75
2022-08-22T05:03:22.169Z,16.95
2022-08-22T05:05:51.709Z,12.85
2022-08-22T05:08:25.615Z,12.60
2022-08-22T05:10:54.746Z,14.52
2022-08-22T05:13:37.830Z,18.83
2022-08-22T05:16:13.071Z,15.38
2022-08-22T05:18:49.324Z,17.92
2022-08-22T05:21:36.417Z,12.93
2022-08-22T05:24:09.680Z,21.85
2022-08-22T05:26:50.757Z,18.33
2022-08-22T05:29:23.425Z,16.80
2022-08-22T05:31:54.774Z,12.77
2022-08-22T05:37:10.350Z,14.85
2022-08-22T05:39:41.212Z,14.60
2022-08-22T05:42:16.295Z,16.45
2022-08-22T05:44:43.608Z,13.75
2022-08-22T05:47:32.063Z,13.63
2022-08-22T05:50:24.145Z,14.48
2022-08-22T05:53:10.971Z,17.15
2022-08-22T05:56:04.304Z,10.23
2022-08-22T05:58:43.300Z,11.45
2022-08-22T06:01:17.065Z,14.80
2022-08-22T06:04:04.804Z,8.57
2022-08-22T06:06:38.398Z,8.23
2022-08-22T06:09:24.215Z,11.32
2022-08-22T06:12:06.353Z,9.25
2022-08-22T06:15:12.262Z,10.15
2022-08-22T06:17:48.201Z,8.15
2022-08-22T06:20:28.613Z,9.63
2022-08-22T06:23:01.015Z,10.33
2022-08-22T06:25:32.986Z,8.45
2022-08-22T06:28:08.832Z,9.55
2022-08-22T06:30:39.723Z,8.90
2022-08-22T06:33:12.611Z,6.47
2022-08-22T06:36:28.698Z,6.00
2022-08-22T06:39:17.802Z,6.50
2022-08-22T06:42:16.674Z,6.28
2022-08-22T06:44:51.518Z,6.22
2022-08-22T06:47:33.322Z,7.35
2022-08-22T06:50:13.539Z,5.25
2022-08-22T06:52:56.661Z,8.77
2022-08-22T06:55:27.655Z,7.15
2022-08-22T06:57:58.996Z,6.10
2022-08-22T07:00:27.916Z,6.57
2022-08-22T07:03:00.637Z,5.72
2022-08-22T07:05:35.062Z,6.82
2022-08-22T07:08:08.600Z,6.60
2022-08-22T07:10:37.315Z,6.35
2022-08-22T07:13:08.449Z,6.93
2022-08-22T07:15:43.265Z,7.32
2022-08-22T07:18:22.098Z,7.50
2022-08-22T07:20:55.329Z,6.90
2022-08-22T07:23:35.628Z,5.60
2022-08-22T07:26:09.190Z,4.82
2022-08-22T07:28:58.648Z,4.97
2022-08-22T07:32:04.353Z,5.28
2022-08-22T07:34:40.389Z,5.60
2022-08-22T07:37:18.504Z,4.78
2022-08-22T07:40:17.235Z,9.30
2022-08-22T07:42:52.092Z,13.95
2022-08-22T07:45:49.577Z,7.93
2022-08-22T07:48:26.296Z,7.30
2022-08-22T07:51:05.852Z,5.50
2022-08-22T07:53:42.336Z,7.10
2022-08-22T07:56:21.760Z,7.82
2022-08-22T07:58:55.671Z,7.45
2022-08-22T08:01:25.647Z,6.10
2022-08-22T08:04:02.394Z,9.23
2022-08-22T08:06:32.078Z,6.40
2022-08-22T08:08:59.801Z,6.20
2022-08-22T08:11:32.751Z,7.55
2022-08-22T08:14:05.594Z,7.80
2022-08-22T08:16:47.894Z,7.03
2022-08-22T08:19:17.692Z,8.43
2022-08-22T08:21:54.076Z,8.18
2022-08-22T08:24:41.357Z,7.68
2022-08-22T08:27:44.151Z,6.55
2022-08-22T08:30:16.424Z,9.60
2022-08-22T08:32:49.494Z,26.98
2022-08-22T08:35:30.056Z,8.45
2022-08-22T08:38:18.233Z,9.77
2022-08-22T08:41:04.449Z,9.20
2022-08-22T08:43:53.307Z,11.15
2022-08-22T08:46:42.558Z,8.18
2022-08-22T08:49:35.931Z,7.50
2022-08-22T08:52:15.680Z,8.18
2022-08-22T08:54:57.621Z,8.43
2022-08-22T08:57:35.083Z,10.15
2022-08-22T09:00:46.033Z,5.97
2022-08-22T09:03:24.023Z,8.68
2022-08-22T09:06:31.290Z,7.50
2022-08-22T09:12:00.560Z,15.13
2022-08-22T09:15:14.094Z,10.07
2022-08-22T09:18:12.924Z,9.40
2022-08-22T09:21:06.906Z,6.80
2022-08-22T09:23:58.899Z,11.05
2022-08-22T09:27:03.292Z,6.28
2022-08-22T09:30:04.847Z,9.32
2022-08-22T09:32:35.798Z,10.02
2022-08-22T09:35:40.482Z,11.38
2022-08-22T09:38:25.127Z,6.03
2022-08-22T09:41:07.693Z,6.95
2022-08-22T09:43:41.855Z,6.15
2022-08-22T09:46:29.445Z,7.05
2022-08-22T09:49:05.593Z,6.40
2022-08-22T09:52:15.564Z,9.40
2022-08-22T09:55:07.943Z,5.05
2022-08-22T09:57:51.751Z,5.32
2022-08-22T10:00:55.375Z,8.18
2022-08-22T10:03:50.755Z,6.70
2022-08-22T10:06:28.560Z,5.40
2022-08-22T10:09:08.844Z,7.28
2022-08-22T10:11:45.507Z,12.35
2022-08-22T10:14:22.290Z,10.68
2022-08-22T10:17:05.583Z,7.72
2022-08-22T10:19:46.941Z,5.15
2022-08-22T10:22:30.268Z,4.85
2022-08-22T10:25:13.434Z,5.25
2022-08-22T10:27:40.446Z,6.03
2022-08-22T10:30:13.719Z,4.65
2022-08-22T10:33:12.176Z,8.85
2022-08-22T10:36:19.982Z,5.55
2022-08-22T10:38:58.767Z,7.88
2022-08-22T10:42:04.059Z,8.73
2022-08-22T10:45:10.242Z,7.95
2022-08-22T10:48:03.415Z,6.32
2022-08-22T10:50:48.207Z,4.68
2022-08-22T10:53:30.397Z,12.32
2022-08-22T10:56:09.910Z,4.80
2022-08-22T10:59:04.889Z,15.10
2022-08-22T11:01:42.038Z,6.35
2022-08-22T11:04:34.801Z,4.28
2022-08-22T11:07:36.384Z,9.85
2022-08-22T11:10:21.544Z,5.00
2022-08-22T11:12:59.473Z,4.53
2022-08-22T11:16:04.571Z,6.97
2022-08-22T11:18:35.030Z,6.72
2022-08-22T11:21:15.055Z,7.82
2022-08-22T11:23:51.802Z,8.23
2022-08-22T11:26:46.811Z,6.97
2022-08-22T11:29:39.020Z,5.85
2022-08-22T11:32:30.927Z,5.70
2022-08-22T11:35:18.241Z,5.60
2022-08-22T11:38:03.012Z,4.30
2022-08-22T11:40:43.178Z,4.97
2022-08-22T11:43:18.955Z,6.47
2022-08-22T11:45:52.272Z,4.50
2022-08-22T11:48:20.274Z,7.47
2022-08-22T11:51:16.355Z,7.93
2022-08-22T11:54:00.360Z,5.40
2022-08-22T11:56:35.537Z,6.25
2022-08-22T11:59:19.567Z,6.85
2022-08-22T12:01:59.814Z,5.75
2022-08-22T12:04:42.677Z,5.32
2022-08-22T12:07:18.484Z,5.93
2022-08-22T12:09:50.784Z,7.53
2022-08-22T12:12:23.701Z,4.28
2022-08-22T12:15:09.332Z,4.18
2022-08-22T12:17:51.012Z,9.95
2022-08-22T12:20:32.323Z,22.88
2022-08-22T12:23:38.019Z,4.10
2022-08-22T12:26:30.937Z,4.97
2022-08-22T12:29:20.222Z,8.43
2022-08-22T12:32:34.094Z,4.25
2022-08-22T12:35:20.030Z,6.05
2022-08-22T12:38:31.299Z,4.13
2022-08-22T12:41:28.116Z,3.95
2022-08-22T12:44:18.039Z,4.35
2022-08-22T12:47:04.448Z,3.75
2022-08-22T12:49:44.926Z,4.03
2022-08-22T12:52:52.411Z,6.00
2022-08-22T12:55:47.670Z,13.68
2022-08-22T12:58:39.741Z,6.95
2022-08-22T13:01:09.174Z,5.95
2022-08-22T13:03:47.295Z,4.80
2022-08-22T13:06:36.815Z,7.68
2022-08-22T13:09:18.761Z,6.68
2022-08-22T13:11:51.419Z,6.65
2022-08-22T13:14:25.961Z,3.80
2022-08-22T13:16:58.784Z,9.15
2022-08-22T13:19:32.466Z,5.47
2022-08-22T13:22:16.853Z,4.10
2022-08-22T13:24:52.423Z,10.07
2022-08-22T13:27:24.267Z,7.22
2022-08-22T13:30:02.217Z,7.22
2022-08-22T13:32:40.146Z,8.98
2022-08-22T13:35:24.621Z,7.15
2022-08-22T13:38:04.153Z,6.90
2022-08-22T13:40:34.335Z,4.50
2022-08-22T13:43:27.065Z,4.93
2022-08-22T13:45:58.181Z,5.90
2022-08-22T13:48:50.250Z,8.90
2022-08-22T13:51:57.258Z,3.88
2022-08-22T13:54:58.614Z,4.88
2022-08-22T13:57:51.701Z,6.78
2022-08-22T14:00:25.473Z,5.82
2022-08-22T14:03:07.997Z,8.70
2022-08-22T14:05:39.443Z,14.75
2022-08-22T14:08:13.233Z,5.22
2022-08-22T14:10:47.399Z,7.25
2022-08-22T14:13:25.534Z,9.60
2022-08-22T14:16:03.555Z,7.85
2022-08-22T14:18:36.650Z,8.85
2022-08-22T14:21:33.429Z,5.97
2022-08-22T14:24:18.937Z,4.20
2022-08-22T14:27:05.087Z,6.82
2022-08-22T14:29:55.146Z,3.85
2022-08-22T14:32:22.607Z,8.38
2022-08-22T14:35:01.442Z,5.78
2022-08-22T14:37:42.102Z,4.63
2022-08-22T14:40:14.540Z,3.75
2022-08-22T14:42:52.341Z,3.83
2022-08-22T14:45:30.974Z,6.38
2022-08-22T14:48:31.698Z,6.45
2022-08-22T14:51:10.211Z,4.85
2022-08-22T14:53:40.344Z,4.63
2022-08-22T14:56:13.598Z,4.55
2022-08-22T14:59:04.750Z,7.00
2022-08-22T15:01:53.160Z,5.30
2022-08-22T15:04:34.124Z,7.10
2022-08-22T15:07:02.613Z,5.63
2022-08-22T15:09:43.014Z,5.75
2022-08-22T15:12:28.202Z,6.15
2022-08-22T15:15:00.671Z,5.55
2022-08-22T15:17:35.426Z,7.85
2022-08-22T15:20:27.677Z,8.85
2022-08-22T15:23:23.049Z,12.52
2022-08-22T15:26:02.003Z,5.15
2022-08-22T15:28:52.714Z,11.20
2022-08-22T15:31:22.337Z,5.72
2022-08-22T15:33:51.428Z,3.60
2022-08-22T15:36:27.392Z,9.40
2022-08-22T15:39:16.347Z,5.03
2022-08-22T15:41:51.204Z,4.80
2022-08-22T15:44:32.712Z,3.97
2022-08-22T15:47:30.413Z,5.28
2022-08-22T15:50:05.483Z,6.30
2022-08-22T15:53:06.600Z,7.65
2022-08-22T15:55:37.456Z,5.78
2022-08-22T15:58:20.577Z,8.13
2022-08-22T16:01:18.944Z,6.28
2022-08-22T16:04:05.337Z,3.83
2022-08-22T16:07:03.004Z,6.00
2022-08-22T16:09:43.539Z,6.75
2022-08-22T16:12:35.430Z,8.38
2022-08-22T16:15:08.233Z,5.45
2022-08-22T16:17:43.066Z,5.55
2022-08-22T16:20:19.723Z,7.97
2022-08-22T16:22:56.907Z,4.05
2022-08-22T16:25:50.625Z,5.88
2022-08-22T16:28:56.220Z,11.98
2022-08-22T16:31:27.490Z,5.75
2022-08-22T16:33:59.270Z,5.28
2022-08-22T16:37:03.524Z,6.45
2022-08-22T16:39:36.718Z,4.70
2022-08-22T16:42:13.430Z,6.80
2022-08-22T16:44:50.413Z,6.10
2022-08-22T16:47:33.166Z,6.85
2022-08-22T16:50:18.586Z,9.50
2022-08-22T16:53:21.380Z,8.25
2022-08-22T16:56:31.759Z,9.95
2022-08-22T16:59:23.750Z,6.82
2022-08-22T17:02:21.795Z,4.70
2022-08-22T17:05:15.794Z,6.38
2022-08-22T17:08:05.290Z,5.97
2022-08-22T17:10:49.271Z,7.57
2022-08-22T17:13:30.231Z,8.13
2022-08-22T17:16:28.821Z,6.28
2022-08-22T17:19:05.331Z,8.60
2022-08-22T17:22:04.691Z,5.90
2022-08-22T17:24:36.612Z,11.65
2022-08-22T17:27:03.783Z,4.97
2022-08-22T17:29:55.230Z,8.30
2022-08-22T17:33:04.255Z,10.45
2022-08-22T17:36:26.344Z,5.25
2022-08-22T17:39:22.636Z,13.00
2022-08-22T17:41:53.454Z,6.85
2022-08-22T17:45:04.128Z,5.35
2022-08-22T17:47:41.402Z,6.40
2022-08-22T17:50:31.193Z,7.63
2022-08-22T17:53:33.689Z,6.30
2022-08-22T17:56:08.066Z,7.85
2022-08-22T17:59:04.831Z,6.38
2022-08-22T18:01:55.462Z,6.65
2022-08-22T18:04:33.787Z,6.97
2022-08-22T18:07:30.194Z,9.43
2022-08-22T18:10:22.363Z,7.55
2022-08-22T18:13:33.937Z,12.77
2022-08-22T18:16:09.523Z,6.47
2022-08-22T18:18:48.186Z,6.13
2022-08-22T18:21:29.540Z,14.75
2022-08-22T18:24:10.832Z,6.38
2022-08-22T18:27:03.047Z,5.88
2022-08-22T18:29:48.570Z,6.25
2022-08-22T18:32:26.959Z,5.88
2022-08-22T18:35:02.698Z,7.00
2022-08-22T18:37:30.974Z,9.75
2022-08-22T18:40:05.834Z,6.78
2022-08-22T18:42:44.933Z,12.63
2022-08-22T18:45:44.042Z,5.85
2022-08-22T18:48:49.505Z,7.60
2022-08-22T18:51:38.321Z,6.10
2022-08-22T18:54:07.031Z,12.25
2022-08-22T18:56:51.630Z,7.88
2022-08-22T18:59:33.912Z,9.65
2022-08-22T19:02:35.712Z,9.55
2022-08-22T19:05:26.871Z,7.93
2022-08-22T19:08:08.003Z,14.65
2022-08-22T19:11:03.193Z,13.70
2022-08-22T19:14:00.859Z,6.95
2022-08-22T19:16:43.172Z,8.65
2022-08-22T19:19:17.390Z,10.40
2022-08-22T19:22:19.726Z,8.77
2022-08-22T19:25:18.203Z,10.77
2022-08-22T19:28:11.749Z,13.45
2022-08-22T19:30:49.177Z,8.63
2022-08-22T19:33:34.521Z,11.52
2022-08-22T19:36:30.169Z,13.65
2022-08-22T19:39:25.452Z,8.93
2022-08-22T19:41:59.667Z,13.43
2022-08-22T19:44:26.830Z,8.77
2022-08-22T19:47:18.790Z,11.45
2022-08-22T19:49:58.714Z,11.85
2022-08-22T19:52:54.579Z,12.13
2022-08-22T19:55:43.382Z,16.45
2022-08-22T19:58:31.923Z,8.10
2022-08-22T20:01:29.575Z,9.93
2022-08-22T20:04:21.479Z,14.35
2022-08-22T20:07:02.467Z,8.13
2022-08-22T20:09:48.109Z,12.00
2022-08-22T20:12:58.074Z,13.75
2022-08-22T20:15:28.281Z,13.77
2022-08-22T20:21:11.942Z,9.68
2022-08-22T20:23:43.662Z,10.43
2022-08-22T20:26:17.486Z,15.70
2022-08-22T20:28:52.403Z,10.18
2022-08-22T20:31:27.159Z,15.02
2022-08-22T20:34:20.579Z,18.40
2022-08-22T20:37:04.290Z,9.65
2022-08-22T20:39:43.700Z,14.85
2022-08-22T20:42:15.579Z,24.40
2022-08-22T20:44:53.473Z,12.90
2022-08-22T20:47:26.842Z,8.98
2022-08-22T20:50:13.572Z,9.77
2022-08-22T20:52:51.797Z,11.27
2022-08-22T20:55:31.597Z,9.80
2022-08-22T20:58:06.202Z,10.80
2022-08-22T21:00:40.278Z,12.20
2022-08-22T21:03:41.577Z,9.68
2022-08-22T21:06:22.841Z,10.35
2022-08-22T21:09:31.526Z,11.80
2022-08-22T21:12:01.472Z,10.43
2022-08-22T21:14:39.975Z,12.85
2022-08-22T21:17:39.284Z,10.52
2022-08-22T21:20:21.428Z,10.25
2022-08-22T21:22:49.611Z,14.35
2022-08-22T21:25:17.075Z,15.07
2022-08-22T21:27:48.258Z,11.05
2022-08-22T21:32:57.391Z,9.10
2022-08-22T21:35:33.351Z,8.70
2022-08-22T21:38:01.883Z,14.50
2022-08-22T21:40:39.588Z,10.35
2022-08-22T21:43:26.760Z,9.90
2022-08-22T21:45:54.061Z,12.43
2022-08-22T21:48:36.806Z,8.15
2022-08-22T21:51:26.425Z,10.52
2022-08-22T21:54:22.295Z,9.77
2022-08-22T21:57:14.669Z,14.23
2022-08-22T21:59:59.635Z,10.80
2022-08-22T22:02:39.626Z,12.27
2022-08-22T22:05:17.139Z,12.00
2022-08-22T22:07:46.734Z,9.13
2022-08-22T22:10:17.285Z,9.38
2022-08-22T22:12:46.981Z,9.32
2022-08-22T22:15:18.257Z,13.38
2022-08-22T22:20:16.400Z,9.73
2022-08-22T22:22:46.459Z,9.57
2022-08-22T22:25:40.853Z,15.53
2022-08-22T22:28:21.938Z,11.48
2022-08-22T22:30:53.276Z,15.57
2022-08-22T22:33:27.504Z,9.98
2022-08-22T22:35:57.851Z,6.65
2022-08-22T22:38:25.626Z,12.23
2022-08-22T22:40:53.576Z,7.72
2022-08-22T22:43:21.402Z,11.18
2022-08-22T22:45:52.236Z,10.77
2022-08-22T22:48:24.033Z,7.80
2022-08-22T22:50:55.865Z,7.63
2022-08-22T22:53:40.309Z,18.00
2022-08-22T22:56:13.854Z,11.48
2022-08-22T22:58:42.305Z,12.43
2022-08-22T23:01:20.283Z,10.60
2022-08-22T23:03:48.468Z,14.00
2022-08-22T23:06:19.502Z,10.02
2022-08-22T23:08:48.551Z,8.95
2022-08-22T23:11:24.798Z,11.63
2022-08-22T23:13:53.241Z,12.75
2022-08-22T23:16:26.542Z,15.27
2022-08-22T23:18:54.320Z,11.18
2022-08-22T23:21:28.378Z,9.55
2022-08-22T23:23:59.862Z,10.65
2022-08-22T23:26:28.429Z,10.20
2022-08-22T23:28:56.625Z,12.23
2022-08-22T23:31:30.386Z,9.98
2022-08-22T23:34:02.328Z,13.75
2022-08-22T23:36:30.025Z,10.65
2022-08-22T23:38:58.710Z,16.40
2022-08-22T23:41:26.705Z,13.38
2022-08-22T23:43:55.691Z,11.73
2022-08-22T23:46:24.812Z,14.45
2022-08-22T23:48:52.448Z,16.23
2022-08-22T23:51:22.941Z,13.02
2022-08-22T23:53:54.795Z,12.90
2022-08-22T23:56:29.834Z,12.18
2022-08-22T23:58:59.333Z,10.98
